sensor_id;sensor_type;location;lat;lon;timestamp;P1;durP1;ratioP1;P2;durP2;ratioP2
75684;SDS011;64298;46.050;38.164;2023-04-06T00:00:23;15.07;;;5.22;;
75684;SDS011;64298;46.050;38.164;2023-04-06T00:02:49;11.73;;;4.78;;
75684;SDS011;64298;46.050;38.164;2023-04-06T00:05:15;13.85;;;5.25;;
75684;SDS011;64298;46.050;38.164;2023-04-06T00:07:41;11.05;;;4.68;;
75684;SDS011;64298;46.050;38.164;2023-04-06T00:10:07;12.68;;;4.18;;
75684;SDS011;64298;46.050;38.164;2023-04-06T00:12:52;12.63;;;5.40;;
75684;SDS011;64298;46.050;38.164;2023-04-06T00:15:19;9.82;;;4.25;;
75684;SDS011;64298;46.050;38.164;2023-04-06T00:17:45;10.32;;;4.25;;
75684;SDS011;64298;46.050;38.164;2023-04-06T00:20:11;12.13;;;3.90;;
75684;SDS011;64298;46.050;38.164;2023-04-06T00:22:37;12.98;;;4.72;;
75684;SDS011;64298;46.050;38.164;2023-04-06T00:25:03;13.85;;;4.82;;
75684;SDS011;64298;46.050;38.164;2023-04-06T00:27:30;10.13;;;3.92;;
75684;SDS011;64298;46.050;38.164;2023-04-06T00:30:14;13.15;;;4.40;;
75684;SDS011;64298;46.050;38.164;2023-04-06T00:32:41;12.52;;;4.25;;
75684;SDS011;64298;46.050;38.164;2023-04-06T00:35:07;10.65;;;4.80;;
75684;SDS011;64298;46.050;38.164;2023-04-06T00:37:33;7.80;;;3.83;;
75684;SDS011;64298;46.050;38.164;2023-04-06T00:39:59;9.38;;;3.22;;
75684;SDS011;64298;46.050;38.164;2023-04-06T00:42:25;9.73;;;3.85;;
75684;SDS011;64298;46.050;38.164;2023-04-06T00:44:52;9.25;;;3.95;;
75684;SDS011;64298;46.050;38.164;2023-04-06T00:47:20;11.75;;;4.18;;
75684;SDS011;64298;46.050;38.164;2023-04-06T00:49:47;15.20;;;4.97;;
75684;SDS011;64298;46.050;38.164;2023-04-06T00:52:13;10.80;;;4.20;;
75684;SDS011;64298;46.050;38.164;2023-04-06T00:54:41;10.73;;;4.00;;
75684;SDS011;64298;46.050;38.164;2023-04-06T00:57:09;8.63;;;4.85;;
75684;SDS011;64298;46.050;38.164;2023-04-06T00:59:36;13.77;;;4.28;;
75684;SDS011;64298;46.050;38.164;2023-04-06T01:02:06;14.07;;;4.40;;
75684;SDS011;64298;46.050;38.164;2023-04-06T01:04:41;8.13;;;3.47;;
75684;SDS011;64298;46.050;38.164;2023-04-06T01:07:12;9.20;;;3.85;;
75684;SDS011;64298;46.050;38.164;2023-04-06T01:09:47;7.90;;;3.80;;
75684;SDS011;64298;46.050;38.164;2023-04-06T01:12:20;9.57;;;3.55;;
75684;SDS011;64298;46.050;38.164;2023-04-06T01:14:46;9.02;;;3.50;;
75684;SDS011;64298;46.050;38.164;2023-04-06T01:17:12;5.38;;;2.55;;
75684;SDS011;64298;46.050;38.164;2023-04-06T01:19:39;8.80;;;2.47;;
75684;SDS011;64298;46.050;38.164;2023-04-06T01:22:07;8.15;;;2.15;;
75684;SDS011;64298;46.050;38.164;2023-04-06T01:24:43;8.82;;;3.08;;
75684;SDS011;64298;46.050;38.164;2023-04-06T01:27:21;7.35;;;2.05;;
75684;SDS011;64298;46.050;38.164;2023-04-06T01:30:05;6.05;;;1.85;;
75684;SDS011;64298;46.050;38.164;2023-04-06T01:32:44;5.65;;;1.95;;
75684;SDS011;64298;46.050;38.164;2023-04-06T01:35:13;3.70;;;1.30;;
75684;SDS011;64298;46.050;38.164;2023-04-06T01:37:46;4.80;;;1.48;;
75684;SDS011;64298;46.050;38.164;2023-04-06T01:40:20;4.30;;;1.52;;
75684;SDS011;64298;46.050;38.164;2023-04-06T01:42:48;7.10;;;1.73;;
75684;SDS011;64298;46.050;38.164;2023-04-06T01:45:23;2.70;;;1.15;;
75684;SDS011;64298;46.050;38.164;2023-04-06T01:47:52;2.90;;;1.33;;
75684;SDS011;64298;46.050;38.164;2023-04-06T01:50:21;3.55;;;1.15;;
75684;SDS011;64298;46.050;38.164;2023-04-06T01:52:48;5.68;;;1.00;;
75684;SDS011;64298;46.050;38.164;2023-04-06T01:55:14;4.10;;;0.98;;
75684;SDS011;64298;46.050;38.164;2023-04-06T01:58:13;3.50;;;1.45;;
75684;SDS011;64298;46.050;38.164;2023-04-06T02:00:40;4.38;;;1.30;;
75684;SDS011;64298;46.050;38.164;2023-04-06T02:03:06;4.82;;;1.10;;
75684;SDS011;64298;46.050;38.164;2023-04-06T02:05:33;4.70;;;0.95;;
75684;SDS011;64298;46.050;38.164;2023-04-06T02:08:08;2.53;;;0.73;;
75684;SDS011;64298;46.050;38.164;2023-04-06T02:10:37;2.95;;;0.95;;
75684;SDS011;64298;46.050;38.164;2023-04-06T02:13:11;3.85;;;0.57;;
75684;SDS011;64298;46.050;38.164;2023-04-06T02:15:39;5.13;;;1.27;;
75684;SDS011;64298;46.050;38.164;2023-04-06T02:18:05;3.15;;;0.93;;
75684;SDS011;64298;46.050;38.164;2023-04-06T02:20:31;4.47;;;1.23;;
75684;SDS011;64298;46.050;38.164;2023-04-06T02:22:58;2.97;;;0.52;;
75684;SDS011;64298;46.050;38.164;2023-04-06T02:25:26;4.63;;;1.00;;
75684;SDS011;64298;46.050;38.164;2023-04-06T02:27:52;4.65;;;0.85;;
75684;SDS011;64298;46.050;38.164;2023-04-06T02:30:18;3.78;;;0.98;;
75684;SDS011;64298;46.050;38.164;2023-04-06T02:32:44;2.85;;;0.60;;
75684;SDS011;64298;46.050;38.164;2023-04-06T02:35:29;2.95;;;0.80;;
75684;SDS011;64298;46.050;38.164;2023-04-06T02:37:56;3.47;;;1.52;;
75684;SDS011;64298;46.050;38.164;2023-04-06T02:40:23;3.28;;;0.82;;
75684;SDS011;64298;46.050;38.164;2023-04-06T02:42:49;4.43;;;0.88;;
75684;SDS011;64298;46.050;38.164;2023-04-06T02:45:19;3.05;;;0.82;;
75684;SDS011;64298;46.050;38.164;2023-04-06T02:50:15;3.35;;;0.93;;
75684;SDS011;64298;46.050;38.164;2023-04-06T02:52:49;4.30;;;1.02;;
75684;SDS011;64298;46.050;38.164;2023-04-06T02:55:15;4.15;;;0.70;;
75684;SDS011;64298;46.050;38.164;2023-04-06T02:57:41;4.03;;;0.70;;
75684;SDS011;64298;46.050;38.164;2023-04-06T03:00:07;3.15;;;1.00;;
75684;SDS011;64298;46.050;38.164;2023-04-06T03:02:38;4.10;;;0.68;;
75684;SDS011;64298;46.050;38.164;2023-04-06T03:05:08;5.18;;;0.65;;
75684;SDS011;64298;46.050;38.164;2023-04-06T03:07:39;3.65;;;1.08;;
75684;SDS011;64298;46.050;38.164;2023-04-06T03:10:23;3.80;;;0.90;;
75684;SDS011;64298;46.050;38.164;2023-04-06T03:12:49;5.57;;;0.98;;
75684;SDS011;64298;46.050;38.164;2023-04-06T03:15:21;3.88;;;0.70;;
75684;SDS011;64298;46.050;38.164;2023-04-06T03:18:06;4.30;;;0.80;;
75684;SDS011;64298;46.050;38.164;2023-04-06T03:20:38;4.22;;;0.95;;
75684;SDS011;64298;46.050;38.164;2023-04-06T03:23:04;4.15;;;0.50;;
75684;SDS011;64298;46.050;38.164;2023-04-06T03:25:38;3.20;;;0.95;;
75684;SDS011;64298;46.050;38.164;2023-04-06T03:28:07;2.40;;;0.90;;
75684;SDS011;64298;46.050;38.164;2023-04-06T03:30:39;2.45;;;0.30;;
75684;SDS011;64298;46.050;38.164;2023-04-06T03:33:05;6.13;;;0.88;;
75684;SDS011;64298;46.050;38.164;2023-04-06T03:35:39;2.88;;;0.80;;
75684;SDS011;64298;46.050;38.164;2023-04-06T03:40:32;4.03;;;0.52;;
75684;SDS011;64298;46.050;38.164;2023-04-06T03:42:59;3.25;;;0.40;;
75684;SDS011;64298;46.050;38.164;2023-04-06T03:45:25;3.60;;;0.50;;
75684;SDS011;64298;46.050;38.164;2023-04-06T03:47:51;0.75;;;0.32;;
75684;SDS011;64298;46.050;38.164;2023-04-06T03:50:18;2.50;;;0.50;;
75684;SDS011;64298;46.050;38.164;2023-04-06T03:52:44;8.45;;;1.17;;
75684;SDS011;64298;46.050;38.164;2023-04-06T03:55:10;4.75;;;0.40;;
75684;SDS011;64298;46.050;38.164;2023-04-06T03:57:36;3.90;;;0.60;;
75684;SDS011;64298;46.050;38.164;2023-04-06T04:00:03;6.03;;;0.55;;
75684;SDS011;64298;46.050;38.164;2023-04-06T04:02:38;5.63;;;0.52;;
75684;SDS011;64298;46.050;38.164;2023-04-06T04:05:04;2.83;;;0.43;;
75684;SDS011;64298;46.050;38.164;2023-04-06T04:07:30;2.50;;;0.60;;
75684;SDS011;64298;46.050;38.164;2023-04-06T04:09:56;3.30;;;0.22;;
75684;SDS011;64298;46.050;38.164;2023-04-06T04:12:22;3.25;;;1.17;;
75684;SDS011;64298;46.050;38.164;2023-04-06T04:14:48;2.55;;;0.30;;
75684;SDS011;64298;46.050;38.164;2023-04-06T04:17:14;3.67;;;0.50;;
75684;SDS011;64298;46.050;38.164;2023-04-06T04:19:41;2.85;;;0.40;;
75684;SDS011;64298;46.050;38.164;2023-04-06T04:22:06;2.90;;;0.60;;
75684;SDS011;64298;46.050;38.164;2023-04-06T04:24:36;2.08;;;0.35;;
75684;SDS011;64298;46.050;38.164;2023-04-06T04:27:02;3.85;;;0.52;;
75684;SDS011;64298;46.050;38.164;2023-04-06T04:29:31;3.15;;;0.32;;
75684;SDS011;64298;46.050;38.164;2023-04-06T04:32:02;1.92;;;0.80;;
75684;SDS011;64298;46.050;38.164;2023-04-06T04:34:29;2.38;;;0.40;;
75684;SDS011;64298;46.050;38.164;2023-04-06T04:36:56;4.38;;;0.30;;
75684;SDS011;64298;46.050;38.164;2023-04-06T04:39:33;2.67;;;0.30;;
75684;SDS011;64298;46.050;38.164;2023-04-06T04:42:04;1.35;;;0.20;;
75684;SDS011;64298;46.050;38.164;2023-04-06T04:44:33;2.10;;;0.40;;
75684;SDS011;64298;46.050;38.164;2023-04-06T04:46:59;3.30;;;0.40;;
75684;SDS011;64298;46.050;38.164;2023-04-06T04:49:36;0.77;;;0.20;;
75684;SDS011;64298;46.050;38.164;2023-04-06T04:52:03;3.58;;;0.63;;
75684;SDS011;64298;46.050;38.164;2023-04-06T04:57:14;1.63;;;0.55;;
75684;SDS011;64298;46.050;38.164;2023-04-06T04:59:42;4.07;;;0.40;;
75684;SDS011;64298;46.050;38.164;2023-04-06T05:02:15;7.50;;;0.88;;
75684;SDS011;64298;46.050;38.164;2023-04-06T05:04:56;1.55;;;0.45;;
75684;SDS011;64298;46.050;38.164;2023-04-06T05:07:25;3.85;;;0.60;;
75684;SDS011;64298;46.050;38.164;2023-04-06T05:09:53;2.53;;;0.47;;
75684;SDS011;64298;46.050;38.164;2023-04-06T05:12:22;2.67;;;0.85;;
75684;SDS011;64298;46.050;38.164;2023-04-06T05:15:03;4.97;;;0.20;;
75684;SDS011;64298;46.050;38.164;2023-04-06T05:17:30;1.45;;;0.30;;
75684;SDS011;64298;46.050;38.164;2023-04-06T05:19:57;0.73;;;0.20;;
75684;SDS011;64298;46.050;38.164;2023-04-06T05:22:24;1.42;;;0.20;;
75684;SDS011;64298;46.050;38.164;2023-04-06T05:25:01;2.78;;;0.35;;
75684;SDS011;64298;46.050;38.164;2023-04-06T05:27:29;2.50;;;0.20;;
75684;SDS011;64298;46.050;38.164;2023-04-06T05:29:55;1.80;;;0.30;;
75684;SDS011;64298;46.050;38.164;2023-04-06T05:32:22;7.65;;;0.35;;
75684;SDS011;64298;46.050;38.164;2023-04-06T05:34:50;9.52;;;0.60;;
75684;SDS011;64298;46.050;38.164;2023-04-06T05:37:16;1.33;;;0.25;;
75684;SDS011;64298;46.050;38.164;2023-04-06T05:39:42;1.92;;;0.13;;
75684;SDS011;64298;46.050;38.164;2023-04-06T05:42:09;4.50;;;0.40;;
75684;SDS011;64298;46.050;38.164;2023-04-06T05:44:50;3.17;;;0.35;;
75684;SDS011;64298;46.050;38.164;2023-04-06T05:47:17;4.00;;;0.50;;
75684;SDS011;64298;46.050;38.164;2023-04-06T05:49:48;2.38;;;0.40;;
75684;SDS011;64298;46.050;38.164;2023-04-06T05:52:22;4.20;;;0.65;;
75684;SDS011;64298;46.050;38.164;2023-04-06T05:55:07;4.63;;;0.32;;
75684;SDS011;64298;46.050;38.164;2023-04-06T05:57:33;11.68;;;0.85;;
75684;SDS011;64298;46.050;38.164;2023-04-06T06:00:01;5.32;;;0.40;;
75684;SDS011;64298;46.050;38.164;2023-04-06T06:02:37;5.30;;;0.40;;
75684;SDS011;64298;46.050;38.164;2023-04-06T06:05:06;3.20;;;0.68;;
75684;SDS011;64298;46.050;38.164;2023-04-06T06:07:33;4.97;;;0.40;;
75684;SDS011;64298;46.050;38.164;2023-04-06T06:10:01;1.40;;;0.22;;
75684;SDS011;64298;46.050;38.164;2023-04-06T06:12:34;4.68;;;0.93;;
75684;SDS011;64298;46.050;38.164;2023-04-06T06:15:01;6.15;;;0.80;;
75684;SDS011;64298;46.050;38.164;2023-04-06T06:17:28;4.53;;;1.05;;
75684;SDS011;64298;46.050;38.164;2023-04-06T06:19:55;2.45;;;0.55;;
75684;SDS011;64298;46.050;38.164;2023-04-06T06:22:21;4.13;;;0.50;;
75684;SDS011;64298;46.050;38.164;2023-04-06T06:24:49;3.53;;;0.38;;
75684;SDS011;64298;46.050;38.164;2023-04-06T06:27:18;2.70;;;0.32;;
75684;SDS011;64298;46.050;38.164;2023-04-06T06:29:45;4.10;;;0.43;;
75684;SDS011;64298;46.050;38.164;2023-04-06T06:32:12;2.33;;;0.30;;
75684;SDS011;64298;46.050;38.164;2023-04-06T06:34:58;3.67;;;0.63;;
75684;SDS011;64298;46.050;38.164;2023-04-06T06:37:24;1.70;;;0.65;;
75684;SDS011;64298;46.050;38.164;2023-04-06T06:39:50;2.67;;;0.38;;
75684;SDS011;64298;46.050;38.164;2023-04-06T06:42:18;2.45;;;0.40;;
75684;SDS011;64298;46.050;38.164;2023-04-06T06:45:10;3.78;;;0.60;;
75684;SDS011;64298;46.050;38.164;2023-04-06T06:47:36;2.70;;;0.32;;
75684;SDS011;64298;46.050;38.164;2023-04-06T06:50:02;12.93;;;0.85;;
75684;SDS011;64298;46.050;38.164;2023-04-06T06:52:29;6.55;;;0.40;;
75684;SDS011;64298;46.050;38.164;2023-04-06T06:54:55;2.00;;;0.20;;
75684;SDS011;64298;46.050;38.164;2023-04-06T06:57:22;1.77;;;0.30;;
75684;SDS011;64298;46.050;38.164;2023-04-06T06:59:49;5.10;;;0.40;;
75684;SDS011;64298;46.050;38.164;2023-04-06T07:02:17;2.65;;;0.30;;
75684;SDS011;64298;46.050;38.164;2023-04-06T07:04:43;1.80;;;0.30;;
75684;SDS011;64298;46.050;38.164;2023-04-06T07:07:09;2.83;;;0.30;;
75684;SDS011;64298;46.050;38.164;2023-04-06T07:09:36;2.28;;;0.22;;
75684;SDS011;64298;46.050;38.164;2023-04-06T07:12:02;1.38;;;0.20;;
75684;SDS011;64298;46.050;38.164;2023-04-06T07:14:29;4.80;;;0.20;;
75684;SDS011;64298;46.050;38.164;2023-04-06T07:16:55;7.82;;;0.75;;
75684;SDS011;64298;46.050;38.164;2023-04-06T07:19:21;5.90;;;0.30;;
75684;SDS011;64298;46.050;38.164;2023-04-06T07:21:47;2.92;;;0.40;;
75684;SDS011;64298;46.050;38.164;2023-04-06T07:29:07;3.30;;;0.60;;
75684;SDS011;64298;46.050;38.164;2023-04-06T07:31:33;2.67;;;0.32;;
75684;SDS011;64298;46.050;38.164;2023-04-06T07:34:01;5.38;;;0.20;;
75684;SDS011;64298;46.050;38.164;2023-04-06T07:36:27;4.43;;;1.20;;
75684;SDS011;64298;46.050;38.164;2023-04-06T07:38:53;3.30;;;1.10;;
75684;SDS011;64298;46.050;38.164;2023-04-06T07:41:20;4.95;;;0.68;;
75684;SDS011;64298;46.050;38.164;2023-04-06T07:43:46;6.45;;;1.50;;
75684;SDS011;64298;46.050;38.164;2023-04-06T07:46:13;11.13;;;1.00;;
75684;SDS011;64298;46.050;38.164;2023-04-06T07:48:39;4.95;;;1.40;;
75684;SDS011;64298;46.050;38.164;2023-04-06T07:51:05;4.00;;;1.70;;
75684;SDS011;64298;46.050;38.164;2023-04-06T07:53:36;7.18;;;0.70;;
75684;SDS011;64298;46.050;38.164;2023-04-06T07:56:02;2.20;;;0.40;;
75684;SDS011;64298;46.050;38.164;2023-04-06T07:58:28;2.25;;;0.43;;
75684;SDS011;64298;46.050;38.164;2023-04-06T08:00:54;8.00;;;1.25;;
75684;SDS011;64298;46.050;38.164;2023-04-06T08:03:20;2.65;;;0.50;;
75684;SDS011;64298;46.050;38.164;2023-04-06T08:05:51;2.95;;;0.50;;
75684;SDS011;64298;46.050;38.164;2023-04-06T08:08:18;6.82;;;1.40;;
75684;SDS011;64298;46.050;38.164;2023-04-06T08:10:44;3.20;;;0.40;;
75684;SDS011;64298;46.050;38.164;2023-04-06T08:13:10;4.40;;;0.63;;
75684;SDS011;64298;46.050;38.164;2023-04-06T08:15:36;3.95;;;0.70;;
75684;SDS011;64298;46.050;38.164;2023-04-06T08:18:02;9.27;;;1.85;;
75684;SDS011;64298;46.050;38.164;2023-04-06T08:20:28;10.98;;;3.22;;
75684;SDS011;64298;46.050;38.164;2023-04-06T08:22:54;6.30;;;2.63;;
75684;SDS011;64298;46.050;38.164;2023-04-06T08:25:20;5.88;;;0.77;;
75684;SDS011;64298;46.050;38.164;2023-04-06T08:27:46;3.58;;;0.57;;
75684;SDS011;64298;46.050;38.164;2023-04-06T08:30:12;3.13;;;0.85;;
75684;SDS011;64298;46.050;38.164;2023-04-06T08:32:40;3.15;;;0.73;;
75684;SDS011;64298;46.050;38.164;2023-04-06T08:35:06;7.20;;;1.65;;
75684;SDS011;64298;46.050;38.164;2023-04-06T08:37:33;1.80;;;0.63;;
75684;SDS011;64298;46.050;38.164;2023-04-06T08:39:59;8.25;;;2.00;;
75684;SDS011;64298;46.050;38.164;2023-04-06T08:42:25;5.65;;;1.33;;
75684;SDS011;64298;46.050;38.164;2023-04-06T08:45:13;21.67;;;10.02;;
75684;SDS011;64298;46.050;38.164;2023-04-06T08:47:41;12.98;;;6.50;;
75684;SDS011;64298;46.050;38.164;2023-04-06T08:50:10;11.48;;;4.30;;
75684;SDS011;64298;46.050;38.164;2023-04-06T08:52:39;4.28;;;1.08;;
75684;SDS011;64298;46.050;38.164;2023-04-06T08:55:06;4.97;;;0.70;;
75684;SDS011;64298;46.050;38.164;2023-04-06T08:57:33;2.42;;;0.52;;
75684;SDS011;64298;46.050;38.164;2023-04-06T09:00:01;1.73;;;0.40;;
75684;SDS011;64298;46.050;38.164;2023-04-06T09:02:46;6.82;;;1.63;;
75684;SDS011;64298;46.050;38.164;2023-04-06T09:05:14;6.70;;;2.50;;
75684;SDS011;64298;46.050;38.164;2023-04-06T09:07:41;10.07;;;3.80;;
75684;SDS011;64298;46.050;38.164;2023-04-06T09:10:08;12.90;;;7.05;;
75684;SDS011;64298;46.050;38.164;2023-04-06T09:12:34;13.57;;;4.03;;
75684;SDS011;64298;46.050;38.164;2023-04-06T09:15:00;22.58;;;14.05;;
75684;SDS011;64298;46.050;38.164;2023-04-06T09:17:30;8.70;;;2.78;;
75684;SDS011;64298;46.050;38.164;2023-04-06T09:20:02;4.22;;;0.40;;
75684;SDS011;64298;46.050;38.164;2023-04-06T09:22:35;8.95;;;4.50;;
75684;SDS011;64298;46.050;38.164;2023-04-06T09:25:02;12.68;;;3.13;;
75684;SDS011;64298;46.050;38.164;2023-04-06T09:27:34;7.28;;;1.08;;
75684;SDS011;64298;46.050;38.164;2023-04-06T09:32:45;3.33;;;1.38;;
75684;SDS011;64298;46.050;38.164;2023-04-06T09:35:31;8.82;;;0.60;;
75684;SDS011;64298;46.050;38.164;2023-04-06T09:37:58;5.53;;;0.60;;
75684;SDS011;64298;46.050;38.164;2023-04-06T09:40:24;1.60;;;0.73;;
75684;SDS011;64298;46.050;38.164;2023-04-06T09:42:50;3.13;;;0.35;;
75684;SDS011;64298;46.050;38.164;2023-04-06T09:45:22;3.50;;;0.60;;
75684;SDS011;64298;46.050;38.164;2023-04-06T09:47:49;4.30;;;1.23;;
75684;SDS011;64298;46.050;38.164;2023-04-06T09:50:16;5.13;;;1.15;;
75684;SDS011;64298;46.050;38.164;2023-04-06T09:52:48;2.60;;;0.65;;
75684;SDS011;64298;46.050;38.164;2023-04-06T09:55:23;3.85;;;1.02;;
75684;SDS011;64298;46.050;38.164;2023-04-06T10:00:40;2.45;;;0.82;;
75684;SDS011;64298;46.050;38.164;2023-04-06T10:05:49;6.97;;;2.30;;
75684;SDS011;64298;46.050;38.164;2023-04-06T10:08:20;10.55;;;5.80;;
75684;SDS011;64298;46.050;38.164;2023-04-06T10:10:50;6.38;;;3.05;;
75684;SDS011;64298;46.050;38.164;2023-04-06T10:13:16;7.18;;;3.67;;
75684;SDS011;64298;46.050;38.164;2023-04-06T10:15:44;12.45;;;6.85;;
75684;SDS011;64298;46.050;38.164;2023-04-06T10:18:10;15.52;;;8.45;;
75684;SDS011;64298;46.050;38.164;2023-04-06T10:20:50;3.97;;;0.98;;
75684;SDS011;64298;46.050;38.164;2023-04-06T10:23:46;3.95;;;0.60;;
75684;SDS011;64298;46.050;38.164;2023-04-06T10:26:14;1.25;;;0.40;;
75684;SDS011;64298;46.050;38.164;2023-04-06T10:31:08;2.28;;;0.68;;
75684;SDS011;64298;46.050;38.164;2023-04-06T10:33:34;3.97;;;0.70;;
75684;SDS011;64298;46.050;38.164;2023-04-06T10:36:13;6.22;;;0.65;;
75684;SDS011;64298;46.050;38.164;2023-04-06T10:38:41;2.35;;;0.43;;
75684;SDS011;64298;46.050;38.164;2023-04-06T10:41:08;3.45;;;0.50;;
75684;SDS011;64298;46.050;38.164;2023-04-06T10:43:36;4.03;;;0.43;;
75684;SDS011;64298;46.050;38.164;2023-04-06T10:46:04;1.98;;;0.30;;
75684;SDS011;64298;46.050;38.164;2023-04-06T10:48:38;3.25;;;0.40;;
75684;SDS011;64298;46.050;38.164;2023-04-06T10:51:10;4.53;;;0.32;;
75684;SDS011;64298;46.050;38.164;2023-04-06T10:53:38;2.08;;;0.40;;
75684;SDS011;64298;46.050;38.164;2023-04-06T10:56:12;2.67;;;0.30;;
75684;SDS011;64298;46.050;38.164;2023-04-06T10:58:47;7.05;;;0.43;;
75684;SDS011;64298;46.050;38.164;2023-04-06T11:01:14;4.88;;;0.50;;
75684;SDS011;64298;46.050;38.164;2023-04-06T11:03:42;4.65;;;0.50;;
75684;SDS011;64298;46.050;38.164;2023-04-06T11:06:10;3.15;;;0.73;;
75684;SDS011;64298;46.050;38.164;2023-04-06T11:08:36;2.63;;;0.82;;
75684;SDS011;64298;46.050;38.164;2023-04-06T11:16:17;2.38;;;0.60;;
75684;SDS011;64298;46.050;38.164;2023-04-06T11:18:52;4.55;;;0.40;;
75684;SDS011;64298;46.050;38.164;2023-04-06T11:21:32;2.28;;;0.43;;
75684;SDS011;64298;46.050;38.164;2023-04-06T11:24:23;2.22;;;0.22;;
75684;SDS011;64298;46.050;38.164;2023-04-06T11:26:54;5.63;;;0.57;;
75684;SDS011;64298;46.050;38.164;2023-04-06T11:29:22;3.65;;;0.45;;
75684;SDS011;64298;46.050;38.164;2023-04-06T11:31:59;4.93;;;0.50;;
75684;SDS011;64298;46.050;38.164;2023-04-06T11:34:27;5.03;;;0.20;;
75684;SDS011;64298;46.050;38.164;2023-04-06T11:36:58;2.65;;;0.20;;
75684;SDS011;64298;46.050;38.164;2023-04-06T11:39:31;2.92;;;0.32;;
75684;SDS011;64298;46.050;38.164;2023-04-06T11:42:02;4.30;;;0.45;;
75684;SDS011;64298;46.050;38.164;2023-04-06T11:44:38;2.45;;;0.52;;
75684;SDS011;64298;46.050;38.164;2023-04-06T11:47:29;2.78;;;0.40;;
75684;SDS011;64298;46.050;38.164;2023-04-06T11:49:56;1.95;;;0.40;;
75684;SDS011;64298;46.050;38.164;2023-04-06T11:52:32;1.67;;;0.32;;
75684;SDS011;64298;46.050;38.164;2023-04-06T11:54:58;3.70;;;0.70;;
75684;SDS011;64298;46.050;38.164;2023-04-06T11:57:25;2.42;;;0.57;;
75684;SDS011;64298;46.050;38.164;2023-04-06T11:59:53;2.22;;;0.90;;
75684;SDS011;64298;46.050;38.164;2023-04-06T12:02:19;1.63;;;0.13;;
75684;SDS011;64298;46.050;38.164;2023-04-06T12:04:45;2.42;;;0.20;;
75684;SDS011;64298;46.050;38.164;2023-04-06T12:07:11;2.22;;;1.02;;
75684;SDS011;64298;46.050;38.164;2023-04-06T12:09:37;2.90;;;0.20;;
75684;SDS011;64298;46.050;38.164;2023-04-06T12:12:04;0.98;;;0.30;;
75684;SDS011;64298;46.050;38.164;2023-04-06T12:14:30;1.58;;;0.20;;
75684;SDS011;64298;46.050;38.164;2023-04-06T12:16:56;1.50;;;0.35;;
75684;SDS011;64298;46.050;38.164;2023-04-06T12:19:23;1.75;;;0.68;;
75684;SDS011;64298;46.050;38.164;2023-04-06T12:21:53;4.15;;;0.38;;
75684;SDS011;64298;46.050;38.164;2023-04-06T12:24:19;3.63;;;0.85;;
75684;SDS011;64298;46.050;38.164;2023-04-06T12:26:46;3.40;;;0.47;;
75684;SDS011;64298;46.050;38.164;2023-04-06T12:29:12;3.08;;;0.32;;
75684;SDS011;64298;46.050;38.164;2023-04-06T12:31:38;2.58;;;0.35;;
75684;SDS011;64298;46.050;38.164;2023-04-06T12:34:06;3.53;;;0.95;;
75684;SDS011;64298;46.050;38.164;2023-04-06T12:36:32;3.90;;;1.00;;
75684;SDS011;64298;46.050;38.164;2023-04-06T12:38:59;2.95;;;0.45;;
75684;SDS011;64298;46.050;38.164;2023-04-06T12:41:28;4.00;;;0.30;;
75684;SDS011;64298;46.050;38.164;2023-04-06T12:43:54;2.33;;;0.35;;
75684;SDS011;64298;46.050;38.164;2023-04-06T12:46:21;6.55;;;0.82;;
75684;SDS011;64298;46.050;38.164;2023-04-06T12:51:15;1.42;;;0.13;;
75684;SDS011;64298;46.050;38.164;2023-04-06T12:53:42;3.00;;;0.20;;
75684;SDS011;64298;46.050;38.164;2023-04-06T12:56:13;1.60;;;0.25;;
75684;SDS011;64298;46.050;38.164;2023-04-06T12:58:43;2.45;;;0.22;;
75684;SDS011;64298;46.050;38.164;2023-04-06T13:01:10;3.22;;;0.35;;
75684;SDS011;64298;46.050;38.164;2023-04-06T13:03:39;1.38;;;0.30;;
75684;SDS011;64298;46.050;38.164;2023-04-06T13:06:06;5.13;;;0.32;;
75684;SDS011;64298;46.050;38.164;2023-04-06T13:08:34;3.47;;;1.08;;
75684;SDS011;64298;46.050;38.164;2023-04-06T13:11:04;1.73;;;0.30;;
75684;SDS011;64298;46.050;38.164;2023-04-06T13:13:30;3.38;;;0.20;;
75684;SDS011;64298;46.050;38.164;2023-04-06T13:16:01;3.38;;;0.77;;
75684;SDS011;64298;46.050;38.164;2023-04-06T13:18:29;2.25;;;0.20;;
75684;SDS011;64298;46.050;38.164;2023-04-06T13:20:56;2.33;;;0.30;;
75684;SDS011;64298;46.050;38.164;2023-04-06T13:23:23;3.60;;;0.65;;
75684;SDS011;64298;46.050;38.164;2023-04-06T13:26:02;1.70;;;0.20;;
75684;SDS011;64298;46.050;38.164;2023-04-06T13:28:30;3.22;;;0.30;;
75684;SDS011;64298;46.050;38.164;2023-04-06T13:30:58;4.57;;;0.25;;
75684;SDS011;64298;46.050;38.164;2023-04-06T13:33:25;1.55;;;0.30;;
75684;SDS011;64298;46.050;38.164;2023-04-06T13:35:52;5.05;;;0.40;;
75684;SDS011;64298;46.050;38.164;2023-04-06T13:38:18;2.72;;;0.50;;
75684;SDS011;64298;46.050;38.164;2023-04-06T13:40:44;7.72;;;1.27;;
75684;SDS011;64298;46.050;38.164;2023-04-06T13:43:10;3.15;;;0.40;;
75684;SDS011;64298;46.050;38.164;2023-04-06T13:45:37;4.25;;;0.50;;
75684;SDS011;64298;46.050;38.164;2023-04-06T13:48:22;2.58;;;0.40;;
75684;SDS011;64298;46.050;38.164;2023-04-06T13:50:49;2.38;;;0.30;;
75684;SDS011;64298;46.050;38.164;2023-04-06T13:53:15;4.07;;;0.22;;
75684;SDS011;64298;46.050;38.164;2023-04-06T13:55:41;5.47;;;1.23;;
75684;SDS011;64298;46.050;38.164;2023-04-06T13:58:07;3.60;;;0.32;;
75684;SDS011;64298;46.050;38.164;2023-04-06T14:00:33;3.97;;;0.38;;
75684;SDS011;64298;46.050;38.164;2023-04-06T14:03:00;5.75;;;1.95;;
75684;SDS011;64298;46.050;38.164;2023-04-06T14:05:30;6.25;;;2.22;;
75684;SDS011;64298;46.050;38.164;2023-04-06T14:07:57;10.82;;;4.32;;
75684;SDS011;64298;46.050;38.164;2023-04-06T14:10:23;9.93;;;2.50;;
75684;SDS011;64298;46.050;38.164;2023-04-06T14:12:51;13.80;;;0.63;;
75684;SDS011;64298;46.050;38.164;2023-04-06T14:15:18;2.90;;;0.70;;
75684;SDS011;64298;46.050;38.164;2023-04-06T14:17:44;3.88;;;0.50;;
75684;SDS011;64298;46.050;38.164;2023-04-06T14:20:10;4.75;;;0.40;;
75684;SDS011;64298;46.050;38.164;2023-04-06T14:22:39;1.90;;;0.60;;
75684;SDS011;64298;46.050;38.164;2023-04-06T14:25:07;2.90;;;0.30;;
75684;SDS011;64298;46.050;38.164;2023-04-06T14:27:33;2.33;;;0.63;;
75684;SDS011;64298;46.050;38.164;2023-04-06T14:29:59;2.67;;;0.28;;
75684;SDS011;64298;46.050;38.164;2023-04-06T14:32:25;3.75;;;0.35;;
75684;SDS011;64298;46.050;38.164;2023-04-06T14:34:51;3.70;;;0.40;;
75684;SDS011;64298;46.050;38.164;2023-04-06T14:37:17;4.38;;;0.20;;
75684;SDS011;64298;46.050;38.164;2023-04-06T14:39:43;2.70;;;0.30;;
75684;SDS011;64298;46.050;38.164;2023-04-06T14:42:09;4.72;;;0.40;;
75684;SDS011;64298;46.050;38.164;2023-04-06T14:44:35;6.05;;;0.50;;
75684;SDS011;64298;46.050;38.164;2023-04-06T14:47:02;1.25;;;0.35;;
75684;SDS011;64298;46.050;38.164;2023-04-06T14:49:32;5.72;;;0.50;;
75684;SDS011;64298;46.050;38.164;2023-04-06T14:51:59;6.55;;;0.60;;
75684;SDS011;64298;46.050;38.164;2023-04-06T14:54:25;4.03;;;0.38;;
75684;SDS011;64298;46.050;38.164;2023-04-06T14:56:51;4.32;;;0.35;;
75684;SDS011;64298;46.050;38.164;2023-04-06T14:59:17;3.00;;;0.25;;
75684;SDS011;64298;46.050;38.164;2023-04-06T15:01:43;4.93;;;0.60;;
75684;SDS011;64298;46.050;38.164;2023-04-06T15:04:09;4.95;;;0.70;;
75684;SDS011;64298;46.050;38.164;2023-04-06T15:06:35;3.67;;;0.47;;
75684;SDS011;64298;46.050;38.164;2023-04-06T15:09:01;4.25;;;0.20;;
75684;SDS011;64298;46.050;38.164;2023-04-06T15:11:27;6.90;;;0.60;;
75684;SDS011;64298;46.050;38.164;2023-04-06T15:13:53;2.65;;;0.38;;